Manolis Donis

Scout - Panathinaikos
6 Mar 2029
Tuesday
Process

Personality

Adaptability (4) Ambition (19) Controversy (6) Loyalty (5) Pressure (7) Professionalism (1) Sportsmanship (1) Temperament (11)

Profile

Coaching Style Democratic
License National A
Determination 6
Man Management 8
Motivating 13
Discipline 10
Job Satisfaction
100%
Fatigue
0%
Role Scout
Wage 98.2K p/w
Contract 14.03.2029

Performance

Behaviour Good
Training Effectiveness
58%
Player Development
70%
Injury Prevention
40%
Tactical Implementation
60%

Recent Events

Contract negotiation started 7d ago
Contract negotiation started 7d ago
Contract negotiation started 7d ago
Contract negotiation started 7d ago
Contract negotiation started 7d ago
Contract negotiation started 7d ago
Contract negotiation started 14d ago
Contract negotiation started 14d ago

Currently Monitoring

180
Player Club Status Ability Confidence Watched Last Observed Latest Vote
Jake Evans Huddersfield Town Active 128 / 125 40% 2 29.01.2029 -
Buba Sangaré Elche Active 147 / 146 40% 6 29.01.2029 -
Gabriel Carvalho Al-Qadisiyah Active 151 / 136 40% 3 28.01.2029 -
Gilberto Mora Cruz Azul Active 149 / 142 40% 3 27.01.2029 -
Louis Page Hull City Active 146 / 136 40% 2 26.01.2029 -
Mustafa Hekimoğlu Sivasspor Active 128 / 153 40% 1 26.01.2029 -
Lisandro Piñero Banfield Active 135 / 129 40% 3 25.01.2029 -
Harry Gray Leeds United Active 142 / 133 40% 4 25.01.2029 -
Kerim Alajbegović Juve Stabia Active 133 / 151 40% 2 21.01.2029 -
Mateo Lizondo Colón Active 92 / 110 40% 1 21.01.2029 -
Luca Raffaelli Cesar Vallejo Active 106 / 130 40% 2 17.01.2029 -
Jiří Panoš Slavia Prague Active 124 / 116 40% 2 14.01.2029 -
Hugo Camberos Leon Active 136 / 128 40% 1 14.01.2029 -
Álvaro Montoro Botafogo Active 133 / 149 40% 1 13.01.2029 -
Kevin Angulo Aguilas Doradas Active 121 / 107 40% 7 11.01.2029 -
Giovanni Cantizano Rosario Central Active 127 / 129 40% 2 11.01.2029 -
Simón Bodnar River Plate Active 114 / 131 40% 3 09.01.2029 -
Álex Méndez Asteras Active 104 / 114 58% 1 06.01.2029 Approve
Sayfiddin Sodikov Andijon Active 87 / 87 40% 1 05.01.2029 -
Lucas Piton Vasco da Gama Active 140 / 125 40% 3 01.01.2029 -
Santiago Sosa Vasco da Gama Active 141 / 127 40% 1 01.01.2029 -
Max Anchor Panserraikos Active 112 / 115 30% 1 / 1m 27.09.2028 -
Joel Ezra Enyimba Active 99 / 114 40% 3 31.08.2028 -
Ishmael Addo Heart of Lions Active 105 / 113 40% 1 31.08.2028 -
Mamoutou Berthé US Bougouba Active 114 / 102 40% 1 30.08.2028 -
Carlos da Rosa Danubio Active 86 / 107 40% 1 28.08.2028 -
Matías Lozano Atletico Bucaramanga Active 109 / 110 40% 1 27.08.2028 -
Julian Hall Austin FC Active 120 / 103 40% 2 25.08.2028 -
Agustín Medina River Plate Active 120 / 132 40% 1 24.08.2028 -
Alexis Rodríguez Portuguesa Active 97 / 106 40% 1 17.08.2028 -
Alphadjo Cissé Bologna Active 129 / 131 40% 3 13.08.2028 -
Jorge Salinas Racing Santander Active 126 / 149 40% 3 10.08.2028 -
Jamal Jimoh-Aloba Northampton Town Active 127 / 128 40% 2 09.08.2028 -
Owen Eames Milton Keynes Dons Active 108 / 98 40% 2 09.08.2028 -
Peter Amidu Acquah Asante Kotoko Active 107 / 116 40% 1 08.08.2028 -
Louie Copley Accrington Stanley Active 96 / 115 40% 2 07.08.2028 -
Daniel Banjaqui Benfica Active 134 / 134 40% 4 07.08.2028 -
Trey Ogunsuyi Shrewsbury Town Active 98 / 98 40% 2 06.08.2028 -
Sebastian Lodberg Pergolettese Active 98 / 117 40% 1 06.08.2028 -
Leo Pecover Rotherham United Active 101 / 119 40% 2 05.08.2028 -
Igor Tyjon Blackburn Rovers Active 117 / 140 40% 4 04.08.2028 -
Mateus Mide Porto Active 115 / 108 40% 1 04.08.2028 -
Isaac England Shrewsbury Town Active 89 / 110 40% 3 03.08.2028 -
Jack Shorrock Port Vale Active 104 / 103 40% 2 29.07.2028 -
Kylan Midwood Shrewsbury Town Active 104 / 94 40% 1 28.07.2028 -
Jan Bürger Burton Albion Active 121 / 117 40% 2 27.07.2028 -
Ronnie Harvey Colchester United Active 84 / 94 40% 1 26.07.2028 -
Rafael Camacho Sporting CP Active 113 / 126 40% 1 26.07.2028 -
André Miranda Porto Active 123 / 113 40% 2 25.07.2028 -
Mathis Jangeal Chaves Active 121 / 107 40% 1 24.07.2028 -
Dro RC Lens Active 145 / 153 40% 1 22.07.2028 -
Charlie Hughes Hull City Active 143 / 137 40% 5 13.07.2028 -
Aidan Morris Middlesbrough Active 143 / 151 40% 2 13.07.2028 -
Cameron Pring Bristol City Active 129 / 127 40% 2 09.07.2028 -
Ronnie Edwards Queens Park Rangers Active 133 / 129 40% 1 09.07.2028 -
Sander Berge Sheffield United Active 150 / 139 40% 3 07.07.2028 -
Kayne Ramsay Charlton Athletic Active 137 / 136 40% 6 07.07.2028 -
Gustavo Puerta Racing Santander Active 138 / 156 40% 5 06.07.2028 -
Jacques Ekomié Wrexham Active 148 / 134 40% 6 04.07.2028 -
Luke McNally Bristol City Active 139 / 125 40% 1 04.07.2028 -
Alfie Doughty Millwall Active 131 / 130 40% 3 03.07.2028 -
Beñat Turrientes Valladolid Active 157 / 153 40% 1 03.07.2028 -
Aleix Garrido Eibar Active 130 / 143 40% 1 30.06.2028 -
Federico Coletta Benfica Active 111 / 103 40% 1 30.06.2028 -
Federico Bonini Almería Active 130 / 146 40% 2 27.06.2028 -
Nordi Mukiele Sunderland Active 154 / 141 40% 2 25.06.2028 -
Tom Davies Walsall Active 145 / 134 40% 2 24.06.2028 -
Will Smallbone Rotherham United Active 126 / 147 40% 2 24.06.2028 -
Aarón Ochoa Málaga Active 124 / 114 40% 1 22.06.2028 -
Héctor Fort Real Sociedad Active 145 / 133 40% 1 22.06.2028 -
Harry Clarke Preston Active 126 / 123 40% 2 20.06.2028 -
Yerson Mosquera Wolverhampton Active 138 / 148 40% 1 18.06.2028 -
Lewis Gibson Preston Active 142 / 139 40% 1 16.06.2028 -
Taylor Harwood-Bellis Southampton Active 132 / 135 40% 1 15.06.2028 -
Nicolas Madsen Queens Park Rangers Active 142 / 129 40% 1 14.06.2028 -
Jayden Bogle Leeds United Active 148 / 144 40% 3 13.06.2028 -
Ben Sheaf Wrexham Active 127 / 131 40% 1 13.06.2028 -
Michael Baidoo Plymouth Argyle Active 128 / 142 40% 1 12.06.2028 -
Mattia Mannini Juve Stabia Active 127 / 131 40% 1 12.06.2028 -
Aaron Wan-Bissaka West Ham United Active 143 / 151 40% 2 10.06.2028 -
Lucas Pires Burnley Active 142 / 143 40% 1 09.06.2028 -
Dani Díaz Real Sociedad Active 128 / 115 40% 1 07.06.2028 -
Manu Morlanes Mallorca Active 148 / 148 40% 1 04.06.2028 -
Víctor Chust Elche Active 149 / 136 40% 1 03.06.2028 -
David Miculescu FCSB Active 119 / 120 67% 1 01.06.2028 Approve
Derry Murkin Derby County Active 127 / 126 40% 1 01.06.2028 -
Leonel Jaime River Plate Active 117 / 106 40% 2 31.01.2028 -
Oscar Schwartau Norwich City Active 129 / 137 40% 2 31.01.2028 -
Ahmed Khaled Paralimni Active 106 / 87 40% 3 28.01.2028 -
Oliver Irow Crawley Town Active 90 / 100 40% 1 28.01.2028 -
Rafael Lobato Rio Ave Active 119 / 124 40% 1 27.01.2028 -
Emiliano Zambrano Gimnasia y Esgrima Active 84 / 112 40% 1 23.01.2028 -
Daniel Awuni Aduana Stars Active 117 / 96 40% 1 22.01.2028 -
Hirokazu Ishihara FC Tokyo Active 137 / 117 40% 3 21.01.2028 -
Sivert Mannsverk Sparta Prague Active 130 / 129 40% 1 21.01.2028 -
Kauã Elias Shakhtar Active 138 / 143 40% 1 20.01.2028 -
Santos Torrealba Portuguesa Active 107 / 107 40% 2 19.01.2028 -
Mihajlo Cvetković Anderlecht Active 129 / 142 40% 1 19.01.2028 -
Nacer Boyata Mouscron Active 131 / 132 40% 2 17.01.2028 -
Razvan Moldovan Olympique de Marseille Active 136 / 137 67% 1 17.01.2028 Approve
Jon Moncayola Osasuna Active 138 / 144 40% 1 17.01.2028 -
Emerson Royal Flamengo Active 146 / 126 40% 1 16.01.2028 -
Vitinho Botafogo Active 139 / 122 40% 3 15.01.2028 -
Evander FC Cincinnati Active 159 / 146 40% 2 14.01.2028 -
Kevin Lomónaco Independiente Active 132 / 127 40% 2 14.01.2028 -
Nicolás Fernández Mercau New York City Active 151 / 150 40% 1 13.01.2028 -
Juan Pablo Freytes Fluminense Active 128 / 138 40% 1 12.01.2028 -
James Justin Leeds United Active 151 / 148 40% 1 12.01.2028 -
Matheus Henrique Cruzeiro Active 141 / 123 40% 1 11.01.2028 -
Ángelo Preciado Atlético Mineiro Active 133 / 130 40% 1 10.01.2028 -
Emil Breivik Molde Active 125 / 125 40% 1 09.01.2028 -
Ryuya Nishio Omiya Ardija Active 129 / 116 40% 5 08.01.2028 -
Valentino Acuña Newell's Old Boys Active 121 / 113 40% 1 04.01.2028 -
Rúben Neves Al-Hilal Active 156 / 146 40% 1 03.01.2028 -
Henadii Synchuk CF Montreal Active 120 / 133 40% 1 03.01.2028 -
Johannes Eggestein VfB Stuttgart Active 125 / 125 67% 1 01.01.2028 Approve
Mehdi Hashemnejad Tigres Active 116 / 118 67% 1 01.01.2028 Approve
Ovidiu Dragusin Club America Active 118 / 122 66% 1 01.01.2028 Approve
Oleksii Hutsuliak Panathinaikos Active 126 / 126 67% 1 01.01.2028 Approve
Jean Lucas Bahia Active 124 / 137 40% 1 01.01.2028 -
Gustavo Lozano Zamora Active 95 / 113 40% 1 01.01.2028 -
Jan Virgili Club Brugge Active 144 / 130 40% 1 01.01.2028 -
Shuto Nakano Sanfrecce Hiroshima Active 142 / 119 40% 1 31.08.2027 -
Marcos Antonio Sport Recife Active 154 / 152 40% 2 30.08.2027 -
Idan Toklomati Charlotte Football Club Active 129 / 126 40% 1 29.08.2027 -
Charles Pickel Sharjah Active 121 / 155 40% 2 26.08.2027 -
Agustín Venezia Iquique Active 103 / 119 40% 2 26.08.2027 -
Matheus Nascimento San Jose Earthquakes Active 111 / 108 40% 1 26.08.2027 -
David Martínez Los Angeles Football Club Active 118 / 147 40% 1 25.08.2027 -
Taiyo Koga Kashiwa Reysol Active 122 / 126 40% 2 21.08.2027 -
Wagner Pina Trabzonspor Active 135 / 147 40% 1 10.08.2027 -
Filippo Ranocchia Palermo Active 136 / 142 40% 1 08.08.2027 -
Christopher Opéri Basaksehir Active 120 / 114 40% 1 08.08.2027 -
Alessandro Zanoli Udinese Active 133 / 128 40% 1 07.08.2027 -
Teboho Mokoena Mamelodi Sundowns Active 123 / 143 40% 6 05.08.2027 -
Christos Zafeiris PAOK Active 141 / 161 40% 4 05.08.2027 -
Nico Elvedi Leeds United Active 146 / 130 40% 2 04.08.2027 -
Brayan Alcócer Tranmere Rovers Active 100 / 105 40% 1 03.08.2027 -
Matías Palacios Al Ain Active 120 / 134 40% 2 02.08.2027 -
Edoardo Bove Watford Active 147 / 132 40% 1 02.08.2027 -
Emanuele Scipioni Monopoli Active 111 / 106 40% 1 29.07.2027 -
Mathias De Amorim Famalicao Active 143 / 144 40% 3 27.07.2027 -
Petko Hristov Spezia Active 137 / 125 40% 2 27.07.2027 -
Djibril Sow Genoa Active 136 / 130 40% 2 26.07.2027 -
Arsenii Batahov Trabzonspor Active 139 / 149 40% 1 23.07.2027 -
Marlon Gomes Shakhtar Active 146 / 133 40% 2 22.07.2027 -
Pedro Henrique Shakhtar Active 132 / 137 40% 3 20.07.2027 -
David Hubert Mouscron Active 137 / 137 40% 1 20.07.2027 -
Tim Jabol-Folcarelli Basaksehir Active 129 / 153 40% 1 18.07.2027 -
Salih Özcan Besiktas Active 155 / 150 40% 1 17.07.2027 -
Rayan Kolli Queens Park Rangers Active 125 / 122 40% 1 17.07.2027 -
Matteo Pessina Monza Active 128 / 132 40% 1 13.07.2027 -
Samuele Angori Pisa Active 130 / 132 40% 1 13.07.2027 -
Moctar Diop KAA Gent Active 123 / 116 40% 2 11.07.2027 -
Sebastiano Luperto Cremonese Active 126 / 130 40% 1 07.07.2027 -
Mohamed Camara Maccabi Tel Aviv Active 123 / 144 40% 1 06.07.2027 -
Adryelson Al Wasl Active 147 / 114 40% 2 05.07.2027 -
Alexandre Duville-Parsemain Moreirense Active 119 / 125 40% 1 04.07.2027 -
Job Ochieng Real Sociedad Active 97 / 111 40% 1 02.07.2027 -
Cédric Don Maccabi Haifa Active 113 / 104 40% 2 01.07.2027 -
Rodrigo Huescas FC Copenhagen Active 130 / 148 40% 3 24.06.2027 -
Armel Bella-Kotchap Venezia Active 127 / 145 40% 1 23.06.2027 -
Zaydou Youssouf Al-Fateh Active 127 / 148 40% 1 22.06.2027 -
Luka Milivojević Aris Thessaloniki Active 139 / 126 51% 1 21.06.2027 -
Mohamed Al Shamsi Al Shabab Active 136 / 122 40% 1 21.06.2027 -
Sampson Dweh Viktoria Plzen Active 128 / 129 40% 1 18.06.2027 -
Emmanuel Agbadou Besiktas Active 156 / 134 40% 3 14.06.2027 -
Matija Frigan Parma Active 124 / 118 40% 1 11.06.2027 -
Moussa Yeo Swansea City Active 121 / 129 40% 1 11.06.2027 -
Máximo Perrone Como Active 145 / 134 40% 1 09.06.2027 -
Radja Nainggolan KV Oostende Active 134 / 154 40% 1 09.06.2027 -
Jaime Seoane Al-Faisaly Active 146 / 140 40% 1 08.06.2027 -
Emam Ashour Al Ahly Active 125 / 119 40% 2 06.06.2027 -
Kelly Saravanan Salford City Active 113 / 118 40% 1 22.01.2027 -
Dor Turgeman Besiktas Active 140 / 134 40% 1 22.01.2027 -
Armstrong Oko-Flex Levski Active 131 / 132 40% 1 21.01.2027 -
Malik Mothersille Stockport County Active 104 / 101 40% 2 20.01.2027 -
Ádin Molnár MTK Budapest Active 107 / 117 40% 1 09.01.2027 -
Krisztofer Horváth Ujpest Active 114 / 112 40% 1 01.01.2027 -
Dale Taylor Blackpool Active 116 / 103 40% 1 01.01.2027 -